sensor_id;sensor_type;location;lat;lon;timestamp;P1;durP1;ratioP1;P2;durP2;ratioP2
46757;SDS011;32509;47.750;-3.396;2023-03-24T00:00:44;19.80;;;4.78;;
46757;SDS011;32509;47.750;-3.396;2023-03-24T00:03:10;19.73;;;4.72;;
46757;SDS011;32509;47.750;-3.396;2023-03-24T00:05:36;23.20;;;4.93;;
46757;SDS011;32509;47.750;-3.396;2023-03-24T00:08:02;18.25;;;3.72;;
46757;SDS011;32509;47.750;-3.396;2023-03-24T00:10:29;21.70;;;4.50;;
46757;SDS011;32509;47.750;-3.396;2023-03-24T00:12:58;25.10;;;5.13;;
46757;SDS011;32509;47.750;-3.396;2023-03-24T00:15:25;28.15;;;5.70;;
46757;SDS011;32509;47.750;-3.396;2023-03-24T00:17:51;15.85;;;4.30;;
46757;SDS011;32509;47.750;-3.396;2023-03-24T00:20:20;26.25;;;5.22;;
46757;SDS011;32509;47.750;-3.396;2023-03-24T00:22:48;17.17;;;4.65;;
46757;SDS011;32509;47.750;-3.396;2023-03-24T00:25:21;21.58;;;4.55;;
46757;SDS011;32509;47.750;-3.396;2023-03-24T00:27:48;21.10;;;5.28;;
46757;SDS011;32509;47.750;-3.396;2023-03-24T00:30:16;21.85;;;4.13;;
46757;SDS011;32509;47.750;-3.396;2023-03-24T00:32:43;19.35;;;4.75;;
46757;SDS011;32509;47.750;-3.396;2023-03-24T00:35:11;26.42;;;5.65;;
46757;SDS011;32509;47.750;-3.396;2023-03-24T00:37:38;27.45;;;5.53;;
46757;SDS011;32509;47.750;-3.396;2023-03-24T00:40:07;22.17;;;5.10;;
46757;SDS011;32509;47.750;-3.396;2023-03-24T00:42:36;17.92;;;4.97;;
46757;SDS011;32509;47.750;-3.396;2023-03-24T00:45:04;27.70;;;6.25;;
46757;SDS011;32509;47.750;-3.396;2023-03-24T00:47:31;23.30;;;4.82;;
46757;SDS011;32509;47.750;-3.396;2023-03-24T00:50:02;28.73;;;6.47;;
46757;SDS011;32509;47.750;-3.396;2023-03-24T00:52:33;31.05;;;6.13;;
46757;SDS011;32509;47.750;-3.396;2023-03-24T00:54:59;19.58;;;5.20;;
46757;SDS011;32509;47.750;-3.396;2023-03-24T00:57:27;32.22;;;7.40;;
46757;SDS011;32509;47.750;-3.396;2023-03-24T00:59:59;21.88;;;5.57;;
46757;SDS011;32509;47.750;-3.396;2023-03-24T01:02:35;22.67;;;6.35;;
46757;SDS011;32509;47.750;-3.396;2023-03-24T01:05:01;25.63;;;6.25;;
46757;SDS011;32509;47.750;-3.396;2023-03-24T01:07:27;27.40;;;6.40;;
46757;SDS011;32509;47.750;-3.396;2023-03-24T01:09:54;27.67;;;6.00;;
46757;SDS011;32509;47.750;-3.396;2023-03-24T01:12:28;33.58;;;6.47;;
46757;SDS011;32509;47.750;-3.396;2023-03-24T01:14:57;24.98;;;5.55;;
46757;SDS011;32509;47.750;-3.396;2023-03-24T01:17:24;28.20;;;7.85;;
46757;SDS011;32509;47.750;-3.396;2023-03-24T01:19:51;16.45;;;5.80;;
46757;SDS011;32509;47.750;-3.396;2023-03-24T01:22:17;29.67;;;7.13;;
46757;SDS011;32509;47.750;-3.396;2023-03-24T01:24:45;31.15;;;6.75;;
46757;SDS011;32509;47.750;-3.396;2023-03-24T01:27:14;20.95;;;6.40;;
46757;SDS011;32509;47.750;-3.396;2023-03-24T01:29:41;27.05;;;5.35;;
46757;SDS011;32509;47.750;-3.396;2023-03-24T01:32:07;22.63;;;5.47;;
46757;SDS011;32509;47.750;-3.396;2023-03-24T01:34:33;32.67;;;7.68;;
46757;SDS011;32509;47.750;-3.396;2023-03-24T01:37:00;27.05;;;6.75;;
46757;SDS011;32509;47.750;-3.396;2023-03-24T01:39:26;30.83;;;6.80;;
46757;SDS011;32509;47.750;-3.396;2023-03-24T01:41:53;26.52;;;6.20;;
46757;SDS011;32509;47.750;-3.396;2023-03-24T01:44:26;29.00;;;6.85;;
46757;SDS011;32509;47.750;-3.396;2023-03-24T01:46:55;38.30;;;7.93;;
46757;SDS011;32509;47.750;-3.396;2023-03-24T01:49:22;28.17;;;6.43;;
46757;SDS011;32509;47.750;-3.396;2023-03-24T01:51:51;27.20;;;6.22;;
46757;SDS011;32509;47.750;-3.396;2023-03-24T01:54:23;30.25;;;6.97;;
46757;SDS011;32509;47.750;-3.396;2023-03-24T01:56:53;30.33;;;6.72;;
46757;SDS011;32509;47.750;-3.396;2023-03-24T01:59:24;34.55;;;8.40;;
46757;SDS011;32509;47.750;-3.396;2023-03-24T02:01:53;42.85;;;9.43;;
46757;SDS011;32509;47.750;-3.396;2023-03-24T02:04:27;28.83;;;7.45;;
46757;SDS011;32509;47.750;-3.396;2023-03-24T02:06:58;37.20;;;7.40;;
46757;SDS011;32509;47.750;-3.396;2023-03-24T02:09:28;28.77;;;7.00;;
46757;SDS011;32509;47.750;-3.396;2023-03-24T02:11:54;33.58;;;8.15;;
46757;SDS011;32509;47.750;-3.396;2023-03-24T02:14:21;34.08;;;8.48;;
46757;SDS011;32509;47.750;-3.396;2023-03-24T02:19:50;33.33;;;7.72;;
46757;SDS011;32509;47.750;-3.396;2023-03-24T02:22:57;38.08;;;8.07;;
46757;SDS011;32509;47.750;-3.396;2023-03-24T02:45:11;32.75;;;6.93;;
46757;SDS011;32509;47.750;-3.396;2023-03-24T02:51:36;33.47;;;8.10;;
46757;SDS011;32509;47.750;-3.396;2023-03-24T02:54:14;47.08;;;10.48;;
46757;SDS011;32509;47.750;-3.396;2023-03-24T02:57:04;35.90;;;8.98;;
46757;SDS011;32509;47.750;-3.396;2023-03-24T02:59:46;32.97;;;7.25;;
46757;SDS011;32509;47.750;-3.396;2023-03-24T03:02:25;36.88;;;7.80;;
46757;SDS011;32509;47.750;-3.396;2023-03-24T03:04:59;33.60;;;7.93;;
46757;SDS011;32509;47.750;-3.396;2023-03-24T03:07:30;37.17;;;8.90;;
46757;SDS011;32509;47.750;-3.396;2023-03-24T03:10:18;34.13;;;8.00;;
46757;SDS011;32509;47.750;-3.396;2023-03-24T03:12:48;37.67;;;9.77;;
46757;SDS011;32509;47.750;-3.396;2023-03-24T03:15:20;55.13;;;9.38;;
46757;SDS011;32509;47.750;-3.396;2023-03-24T03:17:50;35.35;;;7.53;;
46757;SDS011;32509;47.750;-3.396;2023-03-24T03:20:23;33.35;;;8.48;;
46757;SDS011;32509;47.750;-3.396;2023-03-24T03:22:52;38.08;;;6.90;;
46757;SDS011;32509;47.750;-3.396;2023-03-24T03:25:24;32.28;;;7.97;;
46757;SDS011;32509;47.750;-3.396;2023-03-24T03:27:56;39.25;;;9.20;;
46757;SDS011;32509;47.750;-3.396;2023-03-24T03:30:36;31.27;;;6.88;;
46757;SDS011;32509;47.750;-3.396;2023-03-24T03:33:11;24.60;;;7.93;;
46757;SDS011;32509;47.750;-3.396;2023-03-24T03:41:13;35.22;;;8.75;;
46757;SDS011;32509;47.750;-3.396;2023-03-24T03:43:42;38.75;;;8.32;;
46757;SDS011;32509;47.750;-3.396;2023-03-24T03:46:09;37.03;;;7.07;;
46757;SDS011;32509;47.750;-3.396;2023-03-24T03:48:34;31.30;;;9.07;;
46757;SDS011;32509;47.750;-3.396;2023-03-24T03:51:01;32.55;;;7.22;;
46757;SDS011;32509;47.750;-3.396;2023-03-24T03:53:34;36.42;;;7.47;;
46757;SDS011;32509;47.750;-3.396;2023-03-24T03:56:05;24.88;;;6.45;;
46757;SDS011;32509;47.750;-3.396;2023-03-24T03:58:31;31.90;;;6.35;;
46757;SDS011;32509;47.750;-3.396;2023-03-24T04:00:57;23.52;;;6.40;;
46757;SDS011;32509;47.750;-3.396;2023-03-24T04:03:31;29.48;;;6.60;;
46757;SDS011;32509;47.750;-3.396;2023-03-24T04:06:05;39.83;;;8.30;;
46757;SDS011;32509;47.750;-3.396;2023-03-24T04:14:34;36.13;;;7.75;;
46757;SDS011;32509;47.750;-3.396;2023-03-24T04:20:07;31.85;;;8.68;;
46757;SDS011;32509;47.750;-3.396;2023-03-24T04:22:59;26.67;;;6.82;;
46757;SDS011;32509;47.750;-3.396;2023-03-24T04:28:41;35.75;;;7.85;;
46757;SDS011;32509;47.750;-3.396;2023-03-24T04:33:54;36.25;;;9.13;;
46757;SDS011;32509;47.750;-3.396;2023-03-24T04:36:46;28.05;;;6.82;;
46757;SDS011;32509;47.750;-3.396;2023-03-24T04:39:45;24.27;;;7.93;;
46757;SDS011;32509;47.750;-3.396;2023-03-24T04:42:21;33.35;;;6.50;;
46757;SDS011;32509;47.750;-3.396;2023-03-24T04:44:54;30.23;;;8.00;;
46757;SDS011;32509;47.750;-3.396;2023-03-24T04:47:23;34.40;;;9.60;;
46757;SDS011;32509;47.750;-3.396;2023-03-24T04:49:59;37.65;;;8.35;;
46757;SDS011;32509;47.750;-3.396;2023-03-24T04:52:30;46.83;;;9.68;;
46757;SDS011;32509;47.750;-3.396;2023-03-24T04:54:56;28.55;;;7.43;;
46757;SDS011;32509;47.750;-3.396;2023-03-24T04:57:41;35.00;;;7.40;;
46757;SDS011;32509;47.750;-3.396;2023-03-24T05:00:07;35.90;;;7.65;;
46757;SDS011;32509;47.750;-3.396;2023-03-24T05:02:33;35.95;;;8.77;;
46757;SDS011;32509;47.750;-3.396;2023-03-24T05:04:59;32.05;;;8.70;;
46757;SDS011;32509;47.750;-3.396;2023-03-24T05:07:25;30.40;;;8.23;;
46757;SDS011;32509;47.750;-3.396;2023-03-24T05:09:51;25.83;;;6.18;;
46757;SDS011;32509;47.750;-3.396;2023-03-24T05:12:17;28.80;;;6.70;;
46757;SDS011;32509;47.750;-3.396;2023-03-24T05:14:42;33.28;;;7.20;;
46757;SDS011;32509;47.750;-3.396;2023-03-24T05:17:08;30.48;;;9.18;;
46757;SDS011;32509;47.750;-3.396;2023-03-24T05:19:34;34.15;;;8.57;;
46757;SDS011;32509;47.750;-3.396;2023-03-24T05:22:04;34.00;;;7.18;;
46757;SDS011;32509;47.750;-3.396;2023-03-24T05:24:30;32.78;;;7.32;;
46757;SDS011;32509;47.750;-3.396;2023-03-24T05:26:56;37.33;;;8.48;;
46757;SDS011;32509;47.750;-3.396;2023-03-24T05:29:21;43.28;;;8.93;;
46757;SDS011;32509;47.750;-3.396;2023-03-24T05:31:47;45.22;;;10.43;;
46757;SDS011;32509;47.750;-3.396;2023-03-24T05:34:13;37.05;;;7.85;;
46757;SDS011;32509;47.750;-3.396;2023-03-24T05:36:39;44.28;;;9.77;;
46757;SDS011;32509;47.750;-3.396;2023-03-24T05:39:05;35.25;;;8.73;;
46757;SDS011;32509;47.750;-3.396;2023-03-24T05:41:30;29.42;;;6.50;;
46757;SDS011;32509;47.750;-3.396;2023-03-24T05:43:56;28.63;;;7.20;;
46757;SDS011;32509;47.750;-3.396;2023-03-24T05:46:22;41.22;;;8.25;;
46757;SDS011;32509;47.750;-3.396;2023-03-24T05:48:47;33.78;;;7.63;;
46757;SDS011;32509;47.750;-3.396;2023-03-24T05:51:13;34.05;;;7.07;;
46757;SDS011;32509;47.750;-3.396;2023-03-24T05:53:39;32.20;;;8.30;;
46757;SDS011;32509;47.750;-3.396;2023-03-24T05:56:05;30.88;;;8.27;;
46757;SDS011;32509;47.750;-3.396;2023-03-24T05:58:35;41.67;;;9.02;;
46757;SDS011;32509;47.750;-3.396;2023-03-24T06:01:08;32.38;;;7.50;;
46757;SDS011;32509;47.750;-3.396;2023-03-24T06:03:35;32.67;;;7.43;;
46757;SDS011;32509;47.750;-3.396;2023-03-24T06:06:05;34.40;;;6.82;;
46757;SDS011;32509;47.750;-3.396;2023-03-24T06:08:33;37.28;;;7.88;;
46757;SDS011;32509;47.750;-3.396;2023-03-24T06:11:03;33.88;;;8.52;;
46757;SDS011;32509;47.750;-3.396;2023-03-24T06:13:29;35.63;;;9.35;;
46757;SDS011;32509;47.750;-3.396;2023-03-24T06:15:56;32.53;;;8.68;;
46757;SDS011;32509;47.750;-3.396;2023-03-24T06:18:26;38.70;;;7.97;;
46757;SDS011;32509;47.750;-3.396;2023-03-24T06:20:52;39.28;;;8.93;;
46757;SDS011;32509;47.750;-3.396;2023-03-24T06:23:22;47.75;;;7.88;;
46757;SDS011;32509;47.750;-3.396;2023-03-24T06:25:50;35.30;;;8.20;;
46757;SDS011;32509;47.750;-3.396;2023-03-24T06:28:16;28.10;;;8.43;;
46757;SDS011;32509;47.750;-3.396;2023-03-24T06:30:42;30.50;;;7.50;;
46757;SDS011;32509;47.750;-3.396;2023-03-24T06:33:09;33.22;;;7.55;;
46757;SDS011;32509;47.750;-3.396;2023-03-24T06:35:35;30.70;;;6.82;;
46757;SDS011;32509;47.750;-3.396;2023-03-24T06:38:01;30.63;;;9.00;;
46757;SDS011;32509;47.750;-3.396;2023-03-24T06:40:28;34.70;;;9.55;;
46757;SDS011;32509;47.750;-3.396;2023-03-24T06:42:54;36.40;;;7.57;;
46757;SDS011;32509;47.750;-3.396;2023-03-24T06:45:20;33.22;;;7.97;;
46757;SDS011;32509;47.750;-3.396;2023-03-24T06:47:46;28.67;;;6.90;;
46757;SDS011;32509;47.750;-3.396;2023-03-24T06:50:12;30.08;;;6.63;;
46757;SDS011;32509;47.750;-3.396;2023-03-24T06:52:38;30.40;;;7.32;;
46757;SDS011;32509;47.750;-3.396;2023-03-24T06:55:04;26.33;;;7.82;;
46757;SDS011;32509;47.750;-3.396;2023-03-24T06:57:30;31.65;;;7.32;;
46757;SDS011;32509;47.750;-3.396;2023-03-24T06:59:56;31.42;;;7.40;;
46757;SDS011;32509;47.750;-3.396;2023-03-24T07:02:22;35.15;;;7.88;;
46757;SDS011;32509;47.750;-3.396;2023-03-24T07:04:48;35.45;;;8.48;;
46757;SDS011;32509;47.750;-3.396;2023-03-24T07:07:14;29.77;;;7.60;;
46757;SDS011;32509;47.750;-3.396;2023-03-24T07:09:41;31.67;;;7.43;;
46757;SDS011;32509;47.750;-3.396;2023-03-24T07:12:07;29.10;;;8.13;;
46757;SDS011;32509;47.750;-3.396;2023-03-24T07:14:33;31.80;;;8.43;;
46757;SDS011;32509;47.750;-3.396;2023-03-24T07:16:59;25.17;;;7.40;;
46757;SDS011;32509;47.750;-3.396;2023-03-24T07:19:26;29.10;;;7.43;;
46757;SDS011;32509;47.750;-3.396;2023-03-24T07:21:52;31.05;;;7.43;;
46757;SDS011;32509;47.750;-3.396;2023-03-24T07:24:17;32.10;;;6.88;;
46757;SDS011;32509;47.750;-3.396;2023-03-24T07:26:43;25.73;;;6.20;;
46757;SDS011;32509;47.750;-3.396;2023-03-24T07:29:10;39.67;;;6.63;;
46757;SDS011;32509;47.750;-3.396;2023-03-24T07:31:36;22.60;;;7.07;;
46757;SDS011;32509;47.750;-3.396;2023-03-24T07:34:06;29.05;;;6.53;;
46757;SDS011;32509;47.750;-3.396;2023-03-24T07:36:33;36.08;;;7.63;;
46757;SDS011;32509;47.750;-3.396;2023-03-24T07:38:58;33.53;;;8.07;;
46757;SDS011;32509;47.750;-3.396;2023-03-24T07:41:25;38.42;;;7.72;;
46757;SDS011;32509;47.750;-3.396;2023-03-24T07:43:53;32.90;;;7.40;;
46757;SDS011;32509;47.750;-3.396;2023-03-24T07:46:19;29.35;;;6.20;;
46757;SDS011;32509;47.750;-3.396;2023-03-24T07:48:44;24.65;;;5.82;;
46757;SDS011;32509;47.750;-3.396;2023-03-24T07:51:10;31.15;;;7.05;;
46757;SDS011;32509;47.750;-3.396;2023-03-24T07:53:36;38.55;;;7.93;;
46757;SDS011;32509;47.750;-3.396;2023-03-24T07:56:02;29.42;;;7.10;;
46757;SDS011;32509;47.750;-3.396;2023-03-24T07:58:28;28.77;;;6.80;;
46757;SDS011;32509;47.750;-3.396;2023-03-24T08:00:53;25.27;;;6.90;;
46757;SDS011;32509;47.750;-3.396;2023-03-24T08:03:19;30.48;;;6.53;;
46757;SDS011;32509;47.750;-3.396;2023-03-24T08:05:51;32.23;;;8.03;;
46757;SDS011;32509;47.750;-3.396;2023-03-24T08:08:19;35.15;;;7.40;;
46757;SDS011;32509;47.750;-3.396;2023-03-24T08:10:46;31.02;;;7.82;;
46757;SDS011;32509;47.750;-3.396;2023-03-24T08:13:14;38.40;;;9.10;;
46757;SDS011;32509;47.750;-3.396;2023-03-24T08:15:40;33.13;;;8.07;;
46757;SDS011;32509;47.750;-3.396;2023-03-24T08:18:05;27.90;;;6.60;;
46757;SDS011;32509;47.750;-3.396;2023-03-24T08:20:32;32.63;;;6.93;;
46757;SDS011;32509;47.750;-3.396;2023-03-24T08:22:58;27.95;;;6.70;;
46757;SDS011;32509;47.750;-3.396;2023-03-24T08:25:25;39.33;;;8.27;;
46757;SDS011;32509;47.750;-3.396;2023-03-24T08:27:51;32.97;;;8.05;;
46757;SDS011;32509;47.750;-3.396;2023-03-24T08:30:19;39.10;;;7.60;;
46757;SDS011;32509;47.750;-3.396;2023-03-24T08:32:47;36.50;;;10.20;;
46757;SDS011;32509;47.750;-3.396;2023-03-24T08:35:16;24.52;;;6.50;;
46757;SDS011;32509;47.750;-3.396;2023-03-24T08:37:43;32.40;;;7.22;;
46757;SDS011;32509;47.750;-3.396;2023-03-24T08:40:10;30.83;;;7.57;;
46757;SDS011;32509;47.750;-3.396;2023-03-24T08:42:43;25.02;;;6.38;;
46757;SDS011;32509;47.750;-3.396;2023-03-24T08:45:13;30.83;;;7.25;;
46757;SDS011;32509;47.750;-3.396;2023-03-24T08:47:40;24.10;;;6.30;;
46757;SDS011;32509;47.750;-3.396;2023-03-24T08:50:06;20.95;;;5.18;;
46757;SDS011;32509;47.750;-3.396;2023-03-24T08:52:33;30.75;;;5.28;;
46757;SDS011;32509;47.750;-3.396;2023-03-24T08:54:59;31.55;;;6.53;;
46757;SDS011;32509;47.750;-3.396;2023-03-24T08:57:25;28.13;;;7.38;;
46757;SDS011;32509;47.750;-3.396;2023-03-24T08:59:51;21.45;;;5.53;;
46757;SDS011;32509;47.750;-3.396;2023-03-24T09:02:19;29.80;;;5.95;;
46757;SDS011;32509;47.750;-3.396;2023-03-24T09:04:45;23.80;;;5.15;;
46757;SDS011;32509;47.750;-3.396;2023-03-24T09:07:11;33.05;;;6.55;;
46757;SDS011;32509;47.750;-3.396;2023-03-24T09:09:37;32.10;;;5.07;;
46757;SDS011;32509;47.750;-3.396;2023-03-24T09:12:04;32.22;;;6.47;;
46757;SDS011;32509;47.750;-3.396;2023-03-24T09:14:30;24.95;;;6.40;;
46757;SDS011;32509;47.750;-3.396;2023-03-24T09:16:55;30.95;;;6.18;;
46757;SDS011;32509;47.750;-3.396;2023-03-24T09:19:21;18.73;;;5.63;;
46757;SDS011;32509;47.750;-3.396;2023-03-24T09:21:47;23.02;;;5.40;;
46757;SDS011;32509;47.750;-3.396;2023-03-24T09:24:13;32.40;;;6.80;;
46757;SDS011;32509;47.750;-3.396;2023-03-24T09:26:39;32.10;;;6.93;;
46757;SDS011;32509;47.750;-3.396;2023-03-24T09:29:06;35.33;;;6.63;;
46757;SDS011;32509;47.750;-3.396;2023-03-24T09:31:32;30.67;;;5.05;;
46757;SDS011;32509;47.750;-3.396;2023-03-24T09:33:58;35.47;;;6.97;;
46757;SDS011;32509;47.750;-3.396;2023-03-24T09:36:24;28.17;;;7.47;;
46757;SDS011;32509;47.750;-3.396;2023-03-24T09:38:51;31.50;;;7.60;;
46757;SDS011;32509;47.750;-3.396;2023-03-24T09:41:18;33.22;;;6.38;;
46757;SDS011;32509;47.750;-3.396;2023-03-24T09:43:58;33.88;;;7.45;;
46757;SDS011;32509;47.750;-3.396;2023-03-24T09:49:12;24.63;;;5.90;;
46757;SDS011;32509;47.750;-3.396;2023-03-24T09:51:46;32.25;;;7.07;;
46757;SDS011;32509;47.750;-3.396;2023-03-24T09:54:15;30.92;;;7.13;;
46757;SDS011;32509;47.750;-3.396;2023-03-24T09:56:44;29.88;;;6.88;;
46757;SDS011;32509;47.750;-3.396;2023-03-24T09:59:18;34.42;;;7.55;;
46757;SDS011;32509;47.750;-3.396;2023-03-24T10:01:53;29.65;;;6.55;;
46757;SDS011;32509;47.750;-3.396;2023-03-24T10:04:21;27.67;;;6.97;;
46757;SDS011;32509;47.750;-3.396;2023-03-24T10:06:51;25.10;;;6.30;;
46757;SDS011;32509;47.750;-3.396;2023-03-24T10:09:33;26.58;;;5.95;;
46757;SDS011;32509;47.750;-3.396;2023-03-24T10:17:39;28.25;;;6.25;;
46757;SDS011;32509;47.750;-3.396;2023-03-24T10:20:19;30.67;;;6.65;;
46757;SDS011;32509;47.750;-3.396;2023-03-24T10:28:52;24.95;;;6.13;;
46757;SDS011;32509;47.750;-3.396;2023-03-24T10:31:37;27.40;;;6.35;;
46757;SDS011;32509;47.750;-3.396;2023-03-24T10:34:08;21.65;;;5.60;;
46757;SDS011;32509;47.750;-3.396;2023-03-24T10:36:36;25.75;;;6.05;;
46757;SDS011;32509;47.750;-3.396;2023-03-24T10:39:03;20.40;;;5.90;;
46757;SDS011;32509;47.750;-3.396;2023-03-24T10:41:30;37.83;;;7.93;;
46757;SDS011;32509;47.750;-3.396;2023-03-24T10:43:57;28.45;;;6.72;;
46757;SDS011;32509;47.750;-3.396;2023-03-24T10:46:26;26.70;;;6.05;;
46757;SDS011;32509;47.750;-3.396;2023-03-24T10:51:36;34.35;;;7.38;;
46757;SDS011;32509;47.750;-3.396;2023-03-24T10:54:14;35.47;;;7.03;;
46757;SDS011;32509;47.750;-3.396;2023-03-24T10:56:43;25.73;;;6.18;;
46757;SDS011;32509;47.750;-3.396;2023-03-24T10:59:21;31.45;;;7.75;;
46757;SDS011;32509;47.750;-3.396;2023-03-24T11:04:34;31.83;;;6.05;;
46757;SDS011;32509;47.750;-3.396;2023-03-24T11:07:11;43.10;;;8.80;;
46757;SDS011;32509;47.750;-3.396;2023-03-24T11:09:42;31.60;;;7.28;;
46757;SDS011;32509;47.750;-3.396;2023-03-24T11:14:51;32.97;;;7.78;;
46757;SDS011;32509;47.750;-3.396;2023-03-24T11:17:24;34.40;;;7.90;;
46757;SDS011;32509;47.750;-3.396;2023-03-24T11:19:52;40.35;;;7.95;;
46757;SDS011;32509;47.750;-3.396;2023-03-24T11:22:19;32.97;;;8.10;;
46757;SDS011;32509;47.750;-3.396;2023-03-24T11:24:46;28.25;;;7.07;;
46757;SDS011;32509;47.750;-3.396;2023-03-24T11:27:16;34.15;;;7.65;;
46757;SDS011;32509;47.750;-3.396;2023-03-24T11:29:44;34.08;;;8.23;;
46757;SDS011;32509;47.750;-3.396;2023-03-24T11:32:19;34.55;;;6.90;;
46757;SDS011;32509;47.750;-3.396;2023-03-24T11:34:49;33.53;;;7.95;;
46757;SDS011;32509;47.750;-3.396;2023-03-24T11:37:24;38.75;;;10.27;;
46757;SDS011;32509;47.750;-3.396;2023-03-24T11:42:41;36.70;;;7.20;;
46757;SDS011;32509;47.750;-3.396;2023-03-24T11:45:29;36.67;;;7.03;;
46757;SDS011;32509;47.750;-3.396;2023-03-24T11:48:16;42.40;;;7.32;;
46757;SDS011;32509;47.750;-3.396;2023-03-24T11:50:59;32.43;;;7.17;;
46757;SDS011;32509;47.750;-3.396;2023-03-24T11:53:29;32.60;;;7.07;;
46757;SDS011;32509;47.750;-3.396;2023-03-24T11:56:06;30.02;;;6.68;;
46757;SDS011;32509;47.750;-3.396;2023-03-24T11:58:59;34.33;;;6.78;;
46757;SDS011;32509;47.750;-3.396;2023-03-24T12:01:29;36.08;;;7.25;;
46757;SDS011;32509;47.750;-3.396;2023-03-24T12:09:28;24.73;;;6.70;;
46757;SDS011;32509;47.750;-3.396;2023-03-24T12:17:13;36.75;;;7.30;;
46757;SDS011;32509;47.750;-3.396;2023-03-24T12:33:35;36.35;;;7.18;;
46757;SDS011;32509;47.750;-3.396;2023-03-24T12:39:09;26.10;;;6.22;;
46757;SDS011;32509;47.750;-3.396;2023-03-24T12:41:38;28.83;;;6.35;;
46757;SDS011;32509;47.750;-3.396;2023-03-24T13:00:17;22.13;;;6.60;;
46757;SDS011;32509;47.750;-3.396;2023-03-24T13:03:15;44.15;;;8.07;;
46757;SDS011;32509;47.750;-3.396;2023-03-24T13:05:48;30.88;;;6.97;;
46757;SDS011;32509;47.750;-3.396;2023-03-24T13:08:18;26.70;;;7.53;;
46757;SDS011;32509;47.750;-3.396;2023-03-24T13:10:53;27.90;;;7.07;;
46757;SDS011;32509;47.750;-3.396;2023-03-24T13:13:42;32.40;;;7.63;;
46757;SDS011;32509;47.750;-3.396;2023-03-24T13:18:46;14.57;;;3.30;;
46757;SDS011;32509;47.750;-3.396;2023-03-24T13:21:17;19.48;;;5.38;;
46757;SDS011;32509;47.750;-3.396;2023-03-24T13:23:58;15.13;;;3.58;;
46757;SDS011;32509;47.750;-3.396;2023-03-24T13:29:31;17.58;;;4.47;;
46757;SDS011;32509;47.750;-3.396;2023-03-24T13:32:30;16.90;;;3.67;;
46757;SDS011;32509;47.750;-3.396;2023-03-24T13:35:14;18.65;;;3.95;;
46757;SDS011;32509;47.750;-3.396;2023-03-24T13:38:02;23.23;;;4.18;;
46757;SDS011;32509;47.750;-3.396;2023-03-24T13:40:49;16.42;;;4.50;;
46757;SDS011;32509;47.750;-3.396;2023-03-24T13:43:18;19.73;;;5.65;;
46757;SDS011;32509;47.750;-3.396;2023-03-24T13:45:51;14.73;;;3.53;;
46757;SDS011;32509;47.750;-3.396;2023-03-24T13:51:18;20.70;;;5.85;;
46757;SDS011;32509;47.750;-3.396;2023-03-24T13:53:57;19.85;;;4.45;;
46757;SDS011;32509;47.750;-3.396;2023-03-24T13:56:39;22.65;;;4.85;;
46757;SDS011;32509;47.750;-3.396;2023-03-24T14:07:28;33.00;;;6.35;;
46757;SDS011;32509;47.750;-3.396;2023-03-24T14:18:17;21.95;;;5.55;;
46757;SDS011;32509;47.750;-3.396;2023-03-24T14:20:59;30.27;;;7.95;;
46757;SDS011;32509;47.750;-3.396;2023-03-24T14:23:38;32.47;;;6.70;;
46757;SDS011;32509;47.750;-3.396;2023-03-24T14:26:13;22.20;;;5.25;;
46757;SDS011;32509;47.750;-3.396;2023-03-24T14:28:53;41.28;;;9.10;;
46757;SDS011;32509;47.750;-3.396;2023-03-24T14:31:27;32.78;;;7.05;;
46757;SDS011;32509;47.750;-3.396;2023-03-24T14:36:27;44.38;;;7.85;;
46757;SDS011;32509;47.750;-3.396;2023-03-24T14:39:08;33.03;;;6.43;;
46757;SDS011;32509;47.750;-3.396;2023-03-24T14:41:40;28.17;;;6.47;;
46757;SDS011;32509;47.750;-3.396;2023-03-24T14:44:09;33.97;;;6.70;;
46757;SDS011;32509;47.750;-3.396;2023-03-24T14:49:05;30.42;;;6.93;;
46757;SDS011;32509;47.750;-3.396;2023-03-24T14:51:44;30.80;;;7.63;;
46757;SDS011;32509;47.750;-3.396;2023-03-24T14:57:01;33.33;;;6.70;;
46757;SDS011;32509;47.750;-3.396;2023-03-24T15:02:25;31.90;;;7.28;;
46757;SDS011;32509;47.750;-3.396;2023-03-24T15:08:32;34.58;;;7.78;;
46757;SDS011;32509;47.750;-3.396;2023-03-24T15:10:39;33.90;;;8.40;;
46757;SDS011;32509;47.750;-3.396;2023-03-24T15:15:55;35.67;;;7.97;;
46757;SDS011;32509;47.750;-3.396;2023-03-24T15:18:22;18.70;;;5.43;;
46757;SDS011;32509;47.750;-3.396;2023-03-24T15:20:48;25.67;;;6.38;;
46757;SDS011;32509;47.750;-3.396;2023-03-24T15:23:16;30.15;;;5.40;;
46757;SDS011;32509;47.750;-3.396;2023-03-24T15:25:44;38.92;;;8.13;;
46757;SDS011;32509;47.750;-3.396;2023-03-24T15:28:31;20.48;;;5.13;;
46757;SDS011;32509;47.750;-3.396;2023-03-24T15:30:57;21.30;;;4.68;;
46757;SDS011;32509;47.750;-3.396;2023-03-24T15:33:23;24.15;;;5.93;;
46757;SDS011;32509;47.750;-3.396;2023-03-24T15:35:56;21.48;;;4.63;;
46757;SDS011;32509;47.750;-3.396;2023-03-24T15:38:30;18.13;;;5.75;;
46757;SDS011;32509;47.750;-3.396;2023-03-24T15:40:58;25.58;;;5.80;;
46757;SDS011;32509;47.750;-3.396;2023-03-24T15:43:31;20.40;;;4.43;;
46757;SDS011;32509;47.750;-3.396;2023-03-24T15:45:57;20.45;;;5.25;;
46757;SDS011;32509;47.750;-3.396;2023-03-24T15:48:30;22.65;;;4.40;;
46757;SDS011;32509;47.750;-3.396;2023-03-24T15:51:05;16.73;;;5.38;;
46757;SDS011;32509;47.750;-3.396;2023-03-24T15:53:38;11.68;;;3.40;;
46757;SDS011;32509;47.750;-3.396;2023-03-24T15:56:31;13.73;;;3.70;;
46757;SDS011;32509;47.750;-3.396;2023-03-24T16:01:29;11.85;;;2.92;;
46757;SDS011;32509;47.750;-3.396;2023-03-24T16:04:00;17.23;;;5.18;;
46757;SDS011;32509;47.750;-3.396;2023-03-24T16:06:31;17.85;;;3.88;;
46757;SDS011;32509;47.750;-3.396;2023-03-24T16:09:07;13.75;;;3.38;;
46757;SDS011;32509;47.750;-3.396;2023-03-24T16:11:37;14.82;;;4.43;;
46757;SDS011;32509;47.750;-3.396;2023-03-24T16:14:24;14.60;;;3.60;;
46757;SDS011;32509;47.750;-3.396;2023-03-24T16:16:52;7.68;;;3.72;;
46757;SDS011;32509;47.750;-3.396;2023-03-24T16:19:19;17.92;;;3.53;;
46757;SDS011;32509;47.750;-3.396;2023-03-24T16:21:45;11.98;;;4.13;;
46757;SDS011;32509;47.750;-3.396;2023-03-24T16:24:11;13.63;;;2.78;;
46757;SDS011;32509;47.750;-3.396;2023-03-24T16:26:37;14.93;;;3.25;;
46757;SDS011;32509;47.750;-3.396;2023-03-24T16:31:40;13.68;;;3.13;;
46757;SDS011;32509;47.750;-3.396;2023-03-24T16:34:07;16.02;;;3.38;;
46757;SDS011;32509;47.750;-3.396;2023-03-24T16:36:33;12.40;;;3.25;;
46757;SDS011;32509;47.750;-3.396;2023-03-24T16:38:58;15.32;;;4.20;;
46757;SDS011;32509;47.750;-3.396;2023-03-24T16:41:25;16.20;;;4.35;;
46757;SDS011;32509;47.750;-3.396;2023-03-24T16:43:52;11.73;;;3.65;;
46757;SDS011;32509;47.750;-3.396;2023-03-24T16:46:28;16.42;;;3.75;;
46757;SDS011;32509;47.750;-3.396;2023-03-24T16:48:56;20.77;;;4.75;;
46757;SDS011;32509;47.750;-3.396;2023-03-24T16:51:22;10.65;;;3.83;;
46757;SDS011;32509;47.750;-3.396;2023-03-24T16:53:48;13.55;;;2.97;;
46757;SDS011;32509;47.750;-3.396;2023-03-24T16:56:18;16.90;;;5.05;;
46757;SDS011;32509;47.750;-3.396;2023-03-24T16:58:46;17.40;;;4.10;;
46757;SDS011;32509;47.750;-3.396;2023-03-24T17:01:16;12.15;;;3.65;;
46757;SDS011;32509;47.750;-3.396;2023-03-24T17:04:01;15.82;;;3.80;;
46757;SDS011;32509;47.750;-3.396;2023-03-24T17:06:33;19.30;;;4.15;;
46757;SDS011;32509;47.750;-3.396;2023-03-24T17:09:00;17.08;;;5.00;;
46757;SDS011;32509;47.750;-3.396;2023-03-24T17:11:30;18.42;;;4.05;;
46757;SDS011;32509;47.750;-3.396;2023-03-24T17:13:58;19.73;;;4.45;;
46757;SDS011;32509;47.750;-3.396;2023-03-24T17:16:29;15.77;;;5.15;;
46757;SDS011;32509;47.750;-3.396;2023-03-24T17:19:00;13.80;;;4.32;;
46757;SDS011;32509;47.750;-3.396;2023-03-24T17:21:27;17.63;;;4.65;;